createdAt,value
2022-08-30T00:01:03.766Z,85.34
2022-08-30T00:02:06.900Z,85.38
2022-08-30T00:03:14.668Z,85.21
2022-08-30T00:04:17.437Z,85.50
2022-08-30T00:05:20.695Z,85.07
2022-08-30T00:06:24.338Z,85.27
2022-08-30T00:07:27.406Z,85.33
2022-08-30T00:08:29.523Z,85.68
2022-08-30T00:09:32.697Z,85.41
2022-08-30T00:10:34.911Z,85.53
2022-08-30T00:11:37.953Z,85.68
2022-08-30T00:12:40.243Z,85.68
2022-08-30T00:13:45.907Z,85.67
2022-08-30T00:14:48.147Z,86.13
2022-08-30T00:15:51.820Z,86.07
2022-08-30T00:16:53.954Z,85.62
2022-08-30T00:17:57.306Z,86.03
2022-08-30T00:19:02.063Z,85.83
2022-08-30T00:20:07.798Z,86.19
2022-08-30T00:21:10.612Z,85.85
2022-08-30T00:22:13.772Z,86.17
2022-08-30T00:23:17.023Z,86.15
2022-08-30T00:24:20.201Z,86.18
2022-08-30T00:25:23.561Z,86.36
2022-08-30T00:26:26.586Z,86.01
2022-08-30T00:27:28.703Z,86.40
2022-08-30T00:28:33.968Z,85.89
2022-08-30T00:29:36.141Z,86.24
2022-08-30T00:30:39.410Z,86.33
2022-08-30T00:31:41.540Z,86.32
2022-08-30T00:32:44.958Z,86.22
2022-08-30T00:33:47.285Z,86.23
2022-08-30T00:34:53.159Z,86.37
2022-08-30T00:35:55.464Z,86.21
2022-08-30T00:36:59.236Z,86.33
2022-08-30T00:38:01.397Z,86.50
2022-08-30T00:39:05.483Z,86.56
2022-08-30T00:40:12.109Z,86.63
2022-08-30T00:41:15.334Z,86.36
2022-08-30T00:42:18.801Z,86.68
2022-08-30T00:43:25.734Z,86.34
2022-08-30T00:44:30.078Z,86.46
2022-08-30T00:45:35.555Z,86.46
2022-08-30T00:46:37.721Z,86.58
2022-08-30T00:47:40.840Z,86.67
2022-08-30T00:48:49.211Z,86.79
2022-08-30T00:49:56.541Z,86.51
2022-08-30T00:51:04.528Z,86.55
2022-08-30T00:52:07.841Z,86.78
2022-08-30T00:53:15.776Z,86.81
2022-08-30T00:54:19.036Z,86.72
2022-08-30T00:55:23.153Z,86.66
2022-08-30T00:56:26.700Z,86.63
2022-08-30T00:57:31.435Z,86.53
2022-08-30T00:58:38.691Z,86.38
2022-08-30T00:59:44.082Z,86.20
2022-08-30T01:00:46.144Z,86.41
2022-08-30T01:01:49.319Z,86.16
2022-08-30T01:02:52.545Z,86.06
2022-08-30T01:03:55.310Z,86.29
2022-08-30T01:05:00.291Z,86.07
2022-08-30T01:06:03.659Z,86.03
2022-08-30T01:07:08.212Z,86.08
2022-08-30T01:08:10.681Z,85.75
2022-08-30T01:09:15.190Z,85.95
2022-08-30T01:10:18.079Z,86.16
2022-08-30T01:11:24.271Z,86.06
2022-08-30T01:12:26.621Z,85.94
2022-08-30T01:13:29.800Z,85.89
2022-08-30T01:14:33.368Z,85.95
2022-08-30T01:15:38.814Z,85.93
2022-08-30T01:16:43.404Z,86.24
2022-08-30T01:17:48.901Z,85.83
2022-08-30T01:18:52.354Z,86.02
2022-08-30T01:19:58.230Z,85.91
2022-08-30T01:21:10.278Z,85.69
2022-08-30T01:22:22.248Z,85.90
2022-08-30T01:23:28.674Z,85.76
2022-08-30T01:24:31.727Z,85.85
2022-08-30T01:25:37.282Z,85.86
2022-08-30T01:26:39.876Z,85.99
2022-08-30T01:27:46.157Z,85.97
2022-08-30T01:28:52.105Z,85.76
2022-08-30T01:29:56.034Z,86.05
2022-08-30T01:30:58.577Z,85.33
2022-08-30T01:32:01.644Z,85.73
2022-08-30T01:33:04.969Z,85.69
2022-08-30T01:34:09.336Z,85.74
2022-08-30T01:35:13.697Z,85.41
2022-08-30T01:36:17.375Z,85.64
2022-08-30T01:37:25.413Z,85.41
2022-08-30T01:38:34.800Z,85.18
2022-08-30T01:39:36.865Z,85.26
2022-08-30T01:40:40.069Z,85.31
2022-08-30T01:41:43.547Z,85.33
2022-08-30T01:42:47.073Z,85.31
2022-08-30T01:43:50.748Z,85.30
2022-08-30T01:44:53.839Z,85.55
2022-08-30T01:45:55.918Z,85.54
2022-08-30T01:46:58.999Z,85.33
2022-08-30T01:48:02.676Z,85.34
2022-08-30T01:49:11.627Z,85.21
2022-08-30T01:50:14.081Z,85.22
2022-08-30T01:51:17.728Z,85.04
2022-08-30T01:52:20.079Z,84.83
2022-08-30T01:53:23.184Z,84.87
2022-08-30T01:54:27.273Z,84.84
2022-08-30T01:55:37.569Z,84.61
2022-08-30T01:56:40.040Z,84.69
2022-08-30T01:57:43.163Z,84.46
2022-08-30T01:58:46.299Z,84.83
2022-08-30T01:59:50.310Z,84.45
2022-08-30T02:00:52.486Z,84.28
2022-08-30T02:01:55.917Z,84.33
2022-08-30T02:02:58.164Z,84.65
2022-08-30T02:04:01.399Z,84.35
2022-08-30T02:05:06.404Z,84.55
2022-08-30T02:06:11.860Z,84.65
2022-08-30T02:07:14.016Z,84.41
2022-08-30T02:08:20.010Z,84.50
2022-08-30T02:09:22.056Z,84.65
2022-08-30T02:10:26.763Z,84.64
2022-08-30T02:11:28.967Z,84.43
2022-08-30T02:12:31.952Z,84.68
2022-08-30T02:13:34.036Z,84.38
2022-08-30T02:14:38.521Z,84.31
2022-08-30T02:15:41.558Z,84.71
2022-08-30T02:16:45.228Z,84.56
2022-08-30T02:17:47.674Z,84.79
2022-08-30T02:18:51.596Z,84.74
2022-08-30T02:19:53.790Z,84.45
2022-08-30T02:20:56.842Z,84.48
2022-08-30T02:21:58.913Z,84.66
2022-08-30T02:23:01.957Z,84.87
2022-08-30T02:24:04.533Z,84.93
2022-08-30T02:25:11.255Z,84.75
2022-08-30T02:26:25.080Z,84.80
2022-08-30T02:27:28.456Z,84.81
2022-08-30T02:28:30.620Z,84.50
2022-08-30T02:29:33.740Z,84.67
2022-08-30T02:30:35.924Z,84.36
2022-08-30T02:31:39.060Z,84.52
2022-08-30T02:32:41.649Z,84.21
2022-08-30T02:33:44.681Z,84.13
2022-08-30T02:34:47.322Z,84.41
2022-08-30T02:35:50.391Z,84.42
2022-08-30T02:36:52.451Z,84.14
2022-08-30T02:37:55.576Z,84.03
2022-08-30T02:38:58.070Z,84.26
2022-08-30T02:40:01.175Z,84.09
2022-08-30T02:41:03.646Z,84.50
2022-08-30T02:42:08.345Z,84.11
2022-08-30T02:43:10.551Z,83.97
2022-08-30T02:44:13.689Z,83.97
2022-08-30T02:45:15.947Z,84.25
2022-08-30T02:46:22.491Z,84.08
2022-08-30T02:47:24.566Z,83.99
2022-08-30T02:48:27.789Z,84.20
2022-08-30T02:49:33.680Z,84.24
2022-08-30T02:50:41.624Z,84.13
2022-08-30T02:51:43.697Z,84.40
2022-08-30T02:52:48.168Z,84.38
2022-08-30T02:53:50.514Z,84.21
2022-08-30T02:54:54.158Z,84.37
2022-08-30T02:55:56.232Z,83.99
2022-08-30T02:57:04.736Z,84.40
2022-08-30T02:58:08.802Z,84.44
2022-08-30T02:59:11.879Z,84.33
2022-08-30T03:00:18.280Z,84.35
2022-08-30T03:01:21.519Z,84.15
2022-08-30T03:02:23.671Z,84.49
2022-08-30T03:03:27.055Z,84.61
2022-08-30T03:04:29.410Z,84.66
2022-08-30T03:05:33.500Z,84.67
2022-08-30T03:06:35.788Z,84.70
2022-08-30T03:07:38.835Z,84.58
2022-08-30T03:08:41.703Z,84.26
2022-08-30T03:09:44.696Z,84.42
2022-08-30T03:10:46.731Z,84.35
2022-08-30T03:11:49.754Z,84.17
2022-08-30T03:12:51.757Z,84.44
2022-08-30T03:13:56.366Z,84.40
2022-08-30T03:14:58.958Z,84.51
2022-08-30T03:16:02.411Z,84.20
2022-08-30T03:17:06.777Z,84.31
2022-08-30T03:18:16.050Z,84.33
2022-08-30T03:19:18.461Z,84.01
2022-08-30T03:20:22.768Z,84.42
2022-08-30T03:21:24.854Z,84.19
2022-08-30T03:22:28.051Z,84.64
2022-08-30T03:23:30.157Z,84.86
2022-08-30T03:24:33.799Z,85.07
2022-08-30T03:25:36.119Z,84.60
2022-08-30T03:26:42.010Z,85.04
2022-08-30T03:27:46.417Z,84.90
2022-08-30T03:28:49.427Z,84.94
2022-08-30T03:29:52.820Z,85.26
2022-08-30T03:30:56.655Z,85.34
2022-08-30T03:31:58.852Z,85.20
2022-08-30T03:33:02.380Z,85.19
2022-08-30T03:34:05.880Z,85.25
2022-08-30T03:35:10.127Z,85.40
2022-08-30T03:36:13.355Z,85.46
2022-08-30T03:37:15.363Z,85.71
2022-08-30T03:38:18.492Z,85.57
2022-08-30T03:39:21.804Z,85.46
2022-08-30T03:40:24.947Z,85.56
2022-08-30T03:41:28.236Z,85.30
2022-08-30T03:42:31.439Z,85.38
2022-08-30T03:43:33.628Z,85.33
2022-08-30T03:44:36.925Z,85.25
2022-08-30T03:45:41.846Z,85.24
2022-08-30T03:46:45.213Z,85.59
2022-08-30T03:47:47.263Z,85.56
2022-08-30T03:48:50.405Z,85.27
2022-08-30T03:49:52.453Z,85.46
2022-08-30T03:50:55.525Z,85.50
2022-08-30T03:51:57.689Z,85.35
2022-08-30T03:53:01.065Z,85.44
2022-08-30T03:54:03.132Z,85.56
2022-08-30T03:55:07.288Z,85.44
2022-08-30T03:56:09.547Z,85.37
2022-08-30T03:57:16.005Z,85.57
2022-08-30T03:58:22.605Z,85.73
2022-08-30T03:59:25.902Z,85.55
2022-08-30T04:00:29.146Z,85.67
2022-08-30T04:01:32.655Z,85.67
2022-08-30T04:02:35.829Z,85.54
2022-08-30T04:03:38.236Z,85.63
2022-08-30T04:04:41.576Z,85.77
2022-08-30T04:05:43.789Z,85.34
2022-08-30T04:06:46.877Z,85.46
2022-08-30T04:07:49.011Z,85.50
2022-08-30T04:08:52.527Z,85.95
2022-08-30T04:09:55.098Z,85.81
2022-08-30T04:10:58.342Z,85.75
2022-08-30T04:12:00.397Z,85.80
2022-08-30T04:13:03.444Z,85.66
2022-08-30T04:14:05.497Z,85.83
2022-08-30T04:15:11.204Z,86.00
2022-08-30T04:16:13.384Z,86.01
2022-08-30T04:17:17.842Z,86.04
2022-08-30T04:18:19.856Z,85.98
2022-08-30T04:19:22.921Z,85.90
2022-08-30T04:20:25.007Z,86.05
2022-08-30T04:21:28.326Z,86.17
2022-08-30T04:22:30.433Z,86.09
2022-08-30T04:23:33.564Z,86.28
2022-08-30T04:24:35.618Z,86.14
2022-08-30T04:25:40.554Z,86.43
2022-08-30T04:26:42.799Z,86.34
2022-08-30T04:27:46.998Z,86.42
2022-08-30T04:28:49.065Z,86.35
2022-08-30T04:29:54.065Z,86.37
2022-08-30T04:30:58.371Z,86.24
2022-08-30T04:32:01.933Z,86.13
2022-08-30T04:33:06.467Z,86.27
2022-08-30T04:34:10.865Z,86.17
2022-08-30T04:35:14.334Z,86.14
2022-08-30T04:36:16.739Z,86.37
2022-08-30T04:37:19.769Z,86.02
2022-08-30T04:38:28.615Z,86.41
2022-08-30T04:39:33.436Z,86.55
2022-08-30T04:40:36.033Z,86.17
2022-08-30T04:41:40.913Z,86.15
2022-08-30T04:42:44.107Z,86.23
2022-08-30T04:43:49.495Z,86.26
2022-08-30T04:44:51.584Z,85.95
2022-08-30T04:45:55.725Z,86.10
2022-08-30T04:46:57.843Z,86.00
2022-08-30T04:48:01.777Z,85.99
2022-08-30T04:49:05.336Z,85.81
2022-08-30T04:50:11.921Z,85.86
2022-08-30T04:51:16.282Z,85.57
2022-08-30T04:52:19.312Z,85.88
2022-08-30T04:53:21.405Z,85.83
2022-08-30T04:54:24.421Z,85.80
2022-08-30T04:55:26.583Z,85.77
2022-08-30T04:56:29.729Z,85.74
2022-08-30T04:57:31.882Z,85.78
2022-08-30T04:58:35.038Z,85.65
2022-08-30T04:59:38.464Z,85.87
2022-08-30T05:00:44.077Z,85.58
2022-08-30T05:01:46.277Z,85.79
2022-08-30T05:02:50.086Z,85.83
2022-08-30T05:03:54.241Z,85.79
2022-08-30T05:05:15.850Z,85.69
2022-08-30T05:06:19.698Z,85.99
2022-08-30T05:07:21.768Z,85.94
2022-08-30T05:08:25.078Z,86.22
2022-08-30T05:09:27.289Z,85.74
2022-08-30T05:10:30.481Z,85.73
2022-08-30T05:11:33.109Z,86.20
2022-08-30T05:12:36.234Z,86.19
2022-08-30T05:13:39.656Z,86.19
2022-08-30T05:14:41.727Z,86.06
2022-08-30T05:15:45.417Z,86.21
2022-08-30T05:16:47.464Z,86.22
2022-08-30T05:17:50.605Z,86.20
2022-08-30T05:18:53.964Z,86.10
2022-08-30T05:19:57.438Z,86.40
2022-08-30T05:21:09.818Z,86.23
2022-08-30T05:22:11.898Z,86.51
2022-08-30T05:23:14.956Z,86.67
2022-08-30T05:24:17.021Z,86.48
2022-08-30T05:25:22.089Z,86.23
2022-08-30T05:26:27.546Z,86.16
2022-08-30T05:27:30.591Z,86.12
2022-08-30T05:28:32.647Z,86.19
2022-08-30T05:29:35.736Z,86.41
2022-08-30T05:30:38.294Z,86.19
2022-08-30T05:31:42.107Z,86.31
2022-08-30T05:32:44.197Z,86.30
2022-08-30T05:33:47.551Z,86.22
2022-08-30T05:34:49.633Z,86.24
2022-08-30T05:35:55.898Z,86.07
2022-08-30T05:36:59.467Z,86.30
2022-08-30T05:38:01.518Z,86.25
2022-08-30T05:39:06.039Z,86.02
2022-08-30T05:40:10.695Z,86.26
2022-08-30T05:41:14.735Z,86.02
2022-08-30T05:42:17.589Z,85.94
2022-08-30T05:43:20.541Z,86.19
2022-08-30T05:44:28.905Z,85.93
2022-08-30T05:45:31.947Z,85.82
2022-08-30T05:47:37.647Z,85.95
2022-08-30T05:48:40.713Z,85.46
2022-08-30T05:49:43.799Z,85.75
2022-08-30T05:50:45.809Z,85.74
2022-08-30T05:51:50.222Z,85.21
2022-08-30T05:52:52.322Z,85.65
2022-08-30T05:53:57.900Z,85.58
2022-08-30T05:54:59.961Z,85.60
2022-08-30T05:56:03.460Z,85.68
2022-08-30T05:57:05.738Z,85.98
2022-08-30T05:58:08.862Z,85.92
2022-08-30T05:59:12.249Z,85.98
2022-08-30T06:00:18.949Z,85.96
2022-08-30T06:01:23.701Z,86.05
2022-08-30T06:02:26.792Z,85.71
2022-08-30T06:03:32.456Z,85.92
2022-08-30T06:04:34.500Z,86.07
2022-08-30T06:05:38.687Z,85.94
2022-08-30T06:06:42.991Z,85.93
2022-08-30T06:07:47.337Z,86.07
2022-08-30T06:08:49.792Z,85.89
2022-08-30T06:09:52.766Z,85.55
2022-08-30T06:10:55.087Z,85.47
2022-08-30T06:11:58.674Z,85.47
2022-08-30T06:13:00.731Z,85.14
2022-08-30T06:14:05.750Z,85.05
2022-08-30T06:15:08.741Z,84.94
2022-08-30T06:16:13.144Z,84.86
2022-08-30T06:17:15.287Z,84.58
2022-08-30T06:18:18.504Z,84.51
2022-08-30T06:19:25.702Z,84.06
2022-08-30T06:20:28.851Z,84.43
2022-08-30T06:21:34.185Z,84.09
2022-08-30T06:22:38.703Z,83.71
2022-08-30T06:23:42.165Z,83.64
2022-08-30T06:25:00.376Z,83.55
2022-08-30T06:26:06.146Z,83.61
2022-08-30T06:27:10.767Z,83.46
2022-08-30T06:28:13.983Z,83.55
2022-08-30T06:29:20.196Z,83.14
2022-08-30T06:30:23.234Z,82.72
2022-08-30T06:31:26.713Z,82.55
2022-08-30T06:32:30.660Z,82.43
2022-08-30T06:33:32.812Z,82.30
2022-08-30T06:34:35.837Z,82.08
2022-08-30T06:35:52.137Z,82.09
2022-08-30T06:37:00.050Z,81.98
2022-08-30T06:38:03.541Z,82.00
2022-08-30T06:39:07.622Z,81.99
2022-08-30T06:40:13.357Z,81.58
2022-08-30T06:41:18.455Z,81.74
2022-08-30T06:42:21.936Z,81.57
2022-08-30T06:43:24.317Z,81.53
2022-08-30T06:44:27.397Z,81.26
2022-08-30T06:45:31.067Z,81.26
2022-08-30T06:46:35.528Z,80.88
2022-08-30T06:47:38.679Z,80.93
2022-08-30T06:48:43.061Z,80.99
2022-08-30T06:49:48.241Z,80.84
2022-08-30T06:50:53.726Z,80.74
2022-08-30T06:51:56.766Z,80.63
2022-08-30T06:53:05.622Z,80.63
2022-08-30T06:54:12.149Z,80.48
2022-08-30T06:55:16.608Z,80.47
2022-08-30T06:56:22.230Z,80.53
2022-08-30T06:57:25.431Z,80.40
2022-08-30T06:58:28.233Z,80.32
2022-08-30T06:59:32.467Z,80.23
2022-08-30T07:00:34.629Z,80.31
2022-08-30T07:01:39.703Z,80.27
2022-08-30T07:02:42.711Z,80.11
2022-08-30T07:03:45.904Z,80.10
2022-08-30T07:04:49.026Z,80.01
2022-08-30T07:05:51.306Z,79.88
2022-08-30T07:06:54.369Z,79.91
2022-08-30T07:07:56.432Z,79.96
2022-08-30T07:08:59.385Z,79.80
2022-08-30T07:10:03.816Z,79.86
2022-08-30T07:11:07.537Z,80.18
2022-08-30T07:12:11.561Z,79.81
2022-08-30T07:13:13.954Z,79.52
2022-08-30T07:14:17.116Z,79.61
2022-08-30T07:15:22.915Z,79.68
2022-08-30T07:16:26.724Z,79.64
2022-08-30T07:17:47.474Z,79.62
2022-08-30T07:18:54.608Z,79.42
2022-08-30T07:19:57.793Z,79.52
2022-08-30T07:21:08.131Z,79.33
2022-08-30T07:22:11.160Z,79.45
2022-08-30T07:23:13.287Z,79.51
2022-08-30T07:24:16.366Z,79.55
2022-08-30T07:25:20.946Z,79.71
2022-08-30T07:26:26.436Z,79.43
2022-08-30T07:27:29.663Z,79.51
2022-08-30T07:28:32.044Z,79.70
2022-08-30T07:29:35.260Z,79.54
2022-08-30T07:30:38.463Z,79.38
2022-08-30T07:31:41.590Z,79.35
2022-08-30T07:32:43.843Z,79.57
2022-08-30T07:33:47.456Z,79.58
2022-08-30T07:34:49.553Z,79.57
2022-08-30T07:35:54.920Z,79.39
2022-08-30T07:36:57.974Z,79.63
2022-08-30T07:38:00.087Z,79.23
2022-08-30T07:39:03.426Z,79.27
2022-08-30T07:40:06.122Z,79.21
2022-08-30T07:41:10.793Z,78.97
2022-08-30T07:42:13.734Z,78.91
2022-08-30T07:43:16.981Z,78.82
2022-08-30T07:44:23.153Z,78.92
2022-08-30T07:45:27.202Z,79.13
2022-08-30T07:46:30.464Z,79.19
2022-08-30T07:47:33.056Z,79.15
2022-08-30T07:48:37.093Z,79.26
2022-08-30T07:49:43.007Z,79.25
2022-08-30T07:50:48.342Z,78.98
2022-08-30T07:51:53.563Z,78.73
2022-08-30T07:52:56.960Z,78.45
2022-08-30T07:54:00.591Z,78.45
2022-08-30T07:55:06.873Z,77.99
2022-08-30T07:56:16.494Z,78.04
2022-08-30T07:57:21.286Z,77.71
2022-08-30T07:58:24.497Z,77.86
2022-08-30T07:59:26.888Z,77.80
2022-08-30T08:00:30.173Z,77.66
2022-08-30T08:01:32.431Z,78.02
2022-08-30T08:02:37.254Z,77.90
2022-08-30T08:03:40.902Z,77.99
2022-08-30T08:04:44.010Z,78.25
2022-08-30T08:05:46.502Z,78.36
2022-08-30T08:06:49.924Z,78.32
2022-08-30T08:07:51.983Z,78.38
2022-08-30T08:08:56.421Z,78.45
2022-08-30T08:09:58.852Z,78.55
2022-08-30T08:11:07.896Z,79.27
2022-08-30T08:12:11.754Z,78.74
2022-08-30T08:13:14.856Z,78.78
2022-08-30T08:14:18.026Z,78.52
2022-08-30T08:15:20.178Z,78.45
2022-08-30T08:16:24.807Z,78.41
2022-08-30T08:17:27.619Z,78.26
2022-08-30T08:18:31.778Z,78.11
2022-08-30T08:19:33.994Z,78.22
2022-08-30T08:20:37.003Z,78.13
2022-08-30T08:21:40.190Z,77.84
2022-08-30T08:22:42.461Z,77.95
2022-08-30T08:23:45.528Z,77.64
2022-08-30T08:24:47.536Z,77.17
2022-08-30T08:25:50.615Z,77.02
2022-08-30T08:26:53.415Z,76.66
2022-08-30T08:27:58.396Z,76.54
2022-08-30T08:29:00.459Z,76.55
2022-08-30T08:30:03.738Z,76.47
2022-08-30T08:31:16.399Z,76.70
2022-08-30T08:32:18.669Z,76.46
2022-08-30T08:33:22.014Z,76.96
2022-08-30T08:34:24.125Z,75.67
2022-08-30T08:35:27.279Z,75.74
2022-08-30T08:36:30.545Z,75.58
2022-08-30T08:37:33.965Z,75.68
2022-08-30T08:38:43.063Z,75.58
2022-08-30T08:39:45.113Z,75.83
2022-08-30T08:41:00.835Z,75.51
2022-08-30T08:42:15.727Z,75.55
2022-08-30T08:43:26.520Z,75.30
2022-08-30T08:44:34.983Z,75.33
2022-08-30T08:45:47.891Z,75.33
2022-08-30T08:46:58.071Z,75.11
2022-08-30T08:48:04.187Z,75.11
2022-08-30T08:49:09.477Z,74.74
2022-08-30T08:50:17.292Z,74.85
2022-08-30T08:51:49.346Z,74.56
2022-08-30T08:53:20.626Z,74.10
2022-08-30T08:54:38.174Z,74.29
2022-08-30T08:56:50.423Z,74.15
2022-08-30T08:57:52.822Z,74.26
2022-08-30T08:59:01.542Z,74.04
2022-08-30T09:00:05.489Z,73.94
2022-08-30T09:01:09.665Z,73.85
2022-08-30T09:02:24.464Z,73.97
2022-08-30T09:03:43.163Z,73.71
2022-08-30T09:04:50.719Z,73.65
2022-08-30T09:05:59.341Z,73.64
2022-08-30T09:07:06.670Z,73.57
2022-08-30T09:08:15.645Z,72.96
2022-08-30T09:09:22.881Z,72.65
2022-08-30T09:10:46.945Z,72.68
2022-08-30T09:11:50.209Z,72.69
2022-08-30T09:12:55.710Z,72.79
2022-08-30T09:14:04.250Z,73.16
2022-08-30T09:15:13.354Z,73.28
2022-08-30T09:16:54.740Z,73.40
2022-08-30T09:18:01.395Z,73.58
2022-08-30T09:19:05.350Z,73.57
2022-08-30T09:20:10.803Z,73.34
2022-08-30T09:21:15.077Z,73.46
2022-08-30T09:22:29.866Z,73.48
2022-08-30T09:23:32.439Z,73.23
2022-08-30T09:24:43.431Z,72.94
2022-08-30T09:25:52.668Z,73.21
2022-08-30T09:26:54.754Z,73.37
2022-08-30T09:28:12.059Z,73.55
2022-08-30T09:29:19.827Z,73.68
2022-08-30T09:30:25.530Z,73.77
2022-08-30T09:31:31.371Z,74.00
2022-08-30T09:32:38.878Z,74.12
2022-08-30T09:33:41.919Z,74.38
2022-08-30T09:34:44.336Z,74.75
2022-08-30T09:35:52.082Z,74.97
2022-08-30T09:36:57.278Z,75.21
2022-08-30T09:38:05.669Z,75.05
2022-08-30T09:39:18.015Z,75.15
2022-08-30T09:40:28.860Z,75.00
2022-08-30T09:41:41.417Z,75.00
2022-08-30T09:43:00.687Z,75.01
2022-08-30T09:44:08.153Z,74.85
2022-08-30T09:45:29.060Z,74.64
2022-08-30T09:46:31.036Z,74.31
2022-08-30T09:47:34.458Z,74.58
2022-08-30T09:48:40.752Z,74.29
2022-08-30T09:49:44.452Z,74.14
2022-08-30T09:50:57.273Z,74.13
2022-08-30T09:52:14.601Z,73.59
2022-08-30T09:53:24.222Z,73.65
2022-08-30T09:54:34.444Z,73.54
2022-08-30T09:56:04.976Z,72.85
2022-08-30T09:57:16.534Z,72.76
2022-08-30T09:58:29.966Z,72.20
2022-08-30T09:59:41.618Z,71.83
2022-08-30T10:00:57.901Z,71.27
2022-08-30T10:02:04.645Z,71.42
2022-08-30T10:03:35.838Z,70.27
2022-08-30T10:04:52.000Z,70.59
2022-08-30T10:06:02.733Z,70.39
2022-08-30T10:07:14.742Z,69.08
2022-08-30T10:08:21.141Z,69.72
2022-08-30T10:09:37.976Z,69.76
2022-08-30T10:10:47.791Z,69.39
2022-08-30T10:11:57.752Z,69.47
2022-08-30T10:13:11.262Z,69.34
2022-08-30T10:14:40.174Z,68.84
2022-08-30T10:15:50.295Z,68.68
2022-08-30T10:17:01.063Z,68.63
2022-08-30T10:18:13.978Z,68.47
2022-08-30T10:19:33.493Z,68.18
2022-08-30T10:20:43.973Z,68.03
2022-08-30T10:21:54.127Z,67.74
2022-08-30T10:23:02.215Z,65.92
2022-08-30T10:24:11.051Z,65.36
2022-08-30T10:25:19.078Z,65.20
2022-08-30T10:26:31.329Z,64.33
2022-08-30T10:27:42.458Z,62.79
2022-08-30T10:28:51.272Z,62.07
2022-08-30T10:30:00.766Z,60.37
2022-08-30T10:31:12.069Z,60.27
2022-08-30T10:32:20.718Z,60.89
2022-08-30T10:33:27.355Z,61.00
2022-08-30T10:34:40.107Z,60.96
2022-08-30T10:35:47.703Z,61.36
2022-08-30T10:36:55.240Z,60.80
2022-08-30T10:38:04.456Z,61.41
2022-08-30T10:39:09.551Z,61.38
2022-08-30T10:40:41.663Z,61.22
2022-08-30T10:41:50.693Z,61.72
2022-08-30T10:42:56.380Z,61.39
2022-08-30T10:44:04.323Z,61.73
2022-08-30T10:45:14.412Z,61.95
2022-08-30T10:46:26.607Z,61.89
2022-08-30T10:47:36.823Z,61.83
2022-08-30T10:48:44.369Z,61.66
2022-08-30T10:49:54.495Z,61.63
2022-08-30T10:51:02.633Z,61.75
2022-08-30T10:52:20.009Z,61.97
2022-08-30T10:53:30.494Z,61.98
2022-08-30T10:54:39.679Z,62.16
2022-08-30T10:55:50.373Z,62.54
2022-08-30T10:56:54.625Z,62.62
2022-08-30T10:58:01.557Z,62.75
2022-08-30T10:59:05.652Z,62.89
2022-08-30T11:00:13.914Z,62.67
2022-08-30T11:01:28.894Z,63.08
2022-08-30T11:03:06.811Z,63.60
2022-08-30T11:04:49.408Z,64.39
2022-08-30T11:06:06.032Z,64.35
2022-08-30T11:07:22.038Z,64.46
2022-08-30T11:08:48.810Z,64.64
2022-08-30T11:10:08.813Z,65.40
2022-08-30T11:11:19.236Z,65.29
2022-08-30T11:12:37.799Z,65.34
2022-08-30T11:13:42.651Z,65.24
2022-08-30T11:14:45.840Z,65.34
2022-08-30T11:15:59.770Z,65.24
2022-08-30T11:17:21.943Z,65.55
2022-08-30T11:18:30.120Z,65.79
2022-08-30T11:19:38.017Z,66.01
2022-08-30T11:20:44.058Z,65.91
2022-08-30T11:21:48.311Z,66.39
2022-08-30T11:23:23.539Z,65.80
2022-08-30T11:24:27.502Z,66.05
2022-08-30T11:25:57.642Z,65.71
2022-08-30T11:27:03.455Z,65.42
2022-08-30T11:28:09.171Z,65.60
2022-08-30T11:29:32.728Z,65.95
2022-08-30T11:30:52.602Z,65.73
2022-08-30T11:31:56.572Z,65.20
2022-08-30T11:33:07.883Z,65.43
2022-08-30T11:34:12.917Z,65.42
2022-08-30T11:35:37.521Z,65.85
2022-08-30T11:37:09.560Z,65.53
2022-08-30T11:38:17.540Z,64.93
2022-08-30T11:39:52.226Z,64.36
2022-08-30T11:41:09.617Z,64.25
2022-08-30T11:42:24.415Z,64.66
2022-08-30T11:45:36.193Z,64.65
2022-08-30T11:46:41.664Z,64.73
2022-08-30T11:47:46.852Z,64.33
2022-08-30T11:48:55.404Z,63.77
2022-08-30T11:50:09.877Z,62.79
2022-08-30T11:51:27.048Z,62.95
2022-08-30T11:52:41.357Z,62.51
2022-08-30T11:53:52.369Z,62.15
2022-08-30T11:55:12.944Z,62.25
2022-08-30T11:56:22.840Z,62.02
2022-08-30T11:57:34.569Z,61.91
2022-08-30T11:58:49.084Z,61.78
2022-08-30T12:00:06.329Z,61.33
2022-08-30T12:01:50.728Z,61.29
2022-08-30T12:02:58.478Z,61.35
2022-08-30T12:04:07.872Z,61.13
2022-08-30T12:05:51.874Z,58.52
2022-08-30T12:06:59.833Z,59.53
2022-08-30T12:08:04.391Z,58.99
2022-08-30T12:09:09.402Z,59.01
2022-08-30T12:10:22.938Z,59.45
2022-08-30T12:12:02.422Z,59.69
2022-08-30T12:13:06.302Z,60.12
2022-08-30T12:14:28.667Z,60.53
2022-08-30T12:15:58.536Z,59.67
2022-08-30T12:17:20.772Z,60.30
2022-08-30T12:18:43.205Z,60.25
2022-08-30T12:19:50.658Z,59.98
2022-08-30T12:20:55.222Z,60.32
2022-08-30T12:22:01.273Z,60.45
2022-08-30T12:23:19.165Z,60.63
2022-08-30T12:24:26.976Z,60.74
2022-08-30T12:25:31.688Z,60.10
2022-08-30T12:26:37.677Z,60.02
2022-08-30T12:27:40.103Z,60.08
2022-08-30T12:28:45.787Z,60.27
2022-08-30T12:29:51.729Z,60.05
2022-08-30T12:30:54.897Z,60.35
2022-08-30T12:32:01.202Z,60.22
2022-08-30T12:33:06.466Z,58.93
2022-08-30T12:34:10.387Z,59.23
2022-08-30T12:35:23.320Z,58.95
2022-08-30T12:36:36.399Z,58.43
2022-08-30T12:37:43.810Z,57.88
2022-08-30T12:38:51.431Z,57.54
2022-08-30T12:40:03.137Z,57.34
2022-08-30T12:41:06.502Z,57.06
2022-08-30T12:42:18.012Z,56.41
2022-08-30T12:43:26.472Z,55.26
2022-08-30T12:44:29.855Z,55.33
2022-08-30T12:45:37.546Z,55.06
2022-08-30T12:46:43.715Z,53.87
2022-08-30T12:47:49.077Z,53.29
2022-08-30T12:48:52.534Z,53.07
2022-08-30T12:49:56.332Z,53.09
2022-08-30T12:51:01.354Z,51.88
2022-08-30T12:52:18.569Z,51.69
2022-08-30T12:53:27.838Z,51.64
2022-08-30T12:54:32.374Z,51.84
2022-08-30T12:55:49.320Z,51.64
2022-08-30T12:56:57.125Z,50.47
2022-08-30T12:58:03.963Z,50.59
2022-08-30T12:59:06.327Z,50.71
2022-08-30T13:00:12.102Z,50.85
2022-08-30T13:01:18.932Z,50.39
2022-08-30T13:02:26.986Z,50.36
2022-08-30T13:03:35.108Z,50.52
2022-08-30T13:04:37.382Z,49.83
2022-08-30T13:05:47.787Z,49.21
2022-08-30T13:06:54.711Z,48.59
2022-08-30T13:08:11.631Z,48.33
2022-08-30T13:09:26.970Z,48.45
2022-08-30T13:10:30.878Z,48.91
2022-08-30T13:11:33.101Z,48.44
2022-08-30T13:12:38.385Z,49.01
2022-08-30T13:13:44.339Z,48.61
2022-08-30T13:14:48.044Z,48.13
2022-08-30T13:15:50.076Z,47.30
2022-08-30T13:17:07.269Z,46.68
2022-08-30T13:18:21.614Z,46.66
2022-08-30T13:19:35.320Z,46.78
2022-08-30T13:20:38.154Z,46.99
2022-08-30T13:21:52.202Z,47.20
2022-08-30T13:23:05.141Z,47.29
2022-08-30T13:24:08.179Z,46.24
2022-08-30T13:25:11.281Z,46.64
2022-08-30T13:26:23.236Z,46.53
2022-08-30T13:27:27.882Z,45.97
2022-08-30T13:28:29.965Z,45.16
2022-08-30T13:29:33.017Z,45.27
2022-08-30T13:30:35.588Z,44.78
2022-08-30T13:31:39.747Z,44.73
2022-08-30T13:32:47.069Z,44.04
2022-08-30T13:33:53.350Z,45.00
2022-08-30T13:35:03.496Z,45.46
2022-08-30T13:36:08.104Z,46.27
2022-08-30T13:38:44.282Z,47.13
2022-08-30T13:39:46.521Z,47.18
2022-08-30T13:40:50.108Z,47.17
2022-08-30T13:41:53.101Z,47.17
2022-08-30T13:43:00.040Z,47.78
2022-08-30T13:44:13.585Z,47.69
2022-08-30T13:46:54.229Z,47.80
2022-08-30T13:47:58.739Z,47.95
2022-08-30T13:49:05.589Z,47.81
2022-08-30T13:50:09.775Z,48.06
2022-08-30T13:51:12.159Z,48.01
2022-08-30T13:52:21.262Z,48.37
2022-08-30T13:54:50.137Z,48.23
2022-08-30T13:55:52.648Z,48.28
2022-08-30T13:56:56.518Z,47.68
2022-08-30T13:57:59.525Z,48.14
2022-08-30T13:59:03.137Z,48.00
2022-08-30T14:00:12.686Z,48.15
2022-08-30T14:01:18.861Z,48.14
2022-08-30T14:02:21.117Z,47.77
2022-08-30T14:03:24.272Z,47.87
2022-08-30T14:04:26.798Z,47.80
2022-08-30T14:05:52.702Z,48.18
2022-08-30T14:07:14.055Z,47.81
2022-08-30T14:09:54.282Z,48.51
2022-08-30T14:11:19.447Z,48.24
2022-08-30T14:12:52.703Z,48.59
2022-08-30T14:15:11.882Z,48.20
2022-08-30T14:16:29.988Z,47.88
2022-08-30T14:17:35.593Z,47.29
2022-08-30T14:18:38.558Z,47.05
2022-08-30T14:19:43.561Z,46.97
2022-08-30T14:20:45.886Z,47.03
2022-08-30T14:21:49.413Z,47.21
2022-08-30T14:22:52.003Z,47.50
2022-08-30T14:23:56.494Z,47.49
2022-08-30T14:25:01.439Z,47.16
2022-08-30T14:26:11.612Z,47.13
2022-08-30T14:27:16.135Z,47.38